sensor_id;sensor_type;location;lat;lon;timestamp;temperature;humidity
64549;DHT22;49838;51.798;10.954;2023-07-13T00:00:50;24.80;26.80
64549;DHT22;49838;51.798;10.954;2023-07-13T00:03:17;24.80;26.80
64549;DHT22;49838;51.798;10.954;2023-07-13T00:05:45;24.80;26.90
64549;DHT22;49838;51.798;10.954;2023-07-13T00:08:15;24.70;26.80
64549;DHT22;49838;51.798;10.954;2023-07-13T00:10:42;24.70;26.90
64549;DHT22;49838;51.798;10.954;2023-07-13T00:13:11;24.70;26.90
64549;DHT22;49838;51.798;10.954;2023-07-13T00:15:38;24.70;27.00
64549;DHT22;49838;51.798;10.954;2023-07-13T00:18:06;24.60;27.00
64549;DHT22;49838;51.798;10.954;2023-07-13T00:20:33;24.60;27.00
64549;DHT22;49838;51.798;10.954;2023-07-13T00:23:01;24.60;27.10
64549;DHT22;49838;51.798;10.954;2023-07-13T00:25:29;24.60;27.10
64549;DHT22;49838;51.798;10.954;2023-07-13T00:27:57;24.60;27.10
64549;DHT22;49838;51.798;10.954;2023-07-13T00:30:24;24.60;27.20
64549;DHT22;49838;51.798;10.954;2023-07-13T00:32:51;24.50;27.10
64549;DHT22;49838;51.798;10.954;2023-07-13T00:35:19;24.50;26.90
64549;DHT22;49838;51.798;10.954;2023-07-13T00:37:46;24.50;26.90
64549;DHT22;49838;51.798;10.954;2023-07-13T00:40:14;24.50;27.00
64549;DHT22;49838;51.798;10.954;2023-07-13T00:42:43;24.50;27.10
64549;DHT22;49838;51.798;10.954;2023-07-13T00:48:17;24.40;27.00
64549;DHT22;49838;51.798;10.954;2023-07-13T00:50:48;24.40;27.00
64549;DHT22;49838;51.798;10.954;2023-07-13T00:53:18;24.40;27.10
64549;DHT22;49838;51.798;10.954;2023-07-13T00:55:45;24.40;27.10
64549;DHT22;49838;51.798;10.954;2023-07-13T00:58:15;24.40;27.10
64549;DHT22;49838;51.798;10.954;2023-07-13T01:00:42;24.40;27.10
64549;DHT22;49838;51.798;10.954;2023-07-13T01:03:10;24.40;27.20
64549;DHT22;49838;51.798;10.954;2023-07-13T01:05:37;24.40;27.20
64549;DHT22;49838;51.798;10.954;2023-07-13T01:08:05;24.40;27.20
64549;DHT22;49838;51.798;10.954;2023-07-13T01:10:32;24.40;27.30
64549;DHT22;49838;51.798;10.954;2023-07-13T01:13:04;24.40;27.30
64549;DHT22;49838;51.798;10.954;2023-07-13T01:15:34;24.40;27.30
64549;DHT22;49838;51.798;10.954;2023-07-13T01:18:04;24.40;27.30
64549;DHT22;49838;51.798;10.954;2023-07-13T01:20:33;24.40;27.30
64549;DHT22;49838;51.798;10.954;2023-07-13T01:23:05;24.30;27.30
64549;DHT22;49838;51.798;10.954;2023-07-13T01:25:33;24.30;27.30
64549;DHT22;49838;51.798;10.954;2023-07-13T01:28:01;24.30;27.40
64549;DHT22;49838;51.798;10.954;2023-07-13T01:30:28;24.30;27.40
64549;DHT22;49838;51.798;10.954;2023-07-13T01:32:57;24.20;27.30
64549;DHT22;49838;51.798;10.954;2023-07-13T01:35:24;24.20;27.40
64549;DHT22;49838;51.798;10.954;2023-07-13T01:37:53;24.10;27.40
64549;DHT22;49838;51.798;10.954;2023-07-13T01:40:21;24.10;27.50
64549;DHT22;49838;51.798;10.954;2023-07-13T01:42:49;24.10;27.50
64549;DHT22;49838;51.798;10.954;2023-07-13T01:45:16;24.00;27.50
64549;DHT22;49838;51.798;10.954;2023-07-13T01:47:43;24.00;27.60
64549;DHT22;49838;51.798;10.954;2023-07-13T01:50:11;23.90;27.60
64549;DHT22;49838;51.798;10.954;2023-07-13T01:52:38;23.90;27.70
64549;DHT22;49838;51.798;10.954;2023-07-13T01:55:06;23.80;27.60
64549;DHT22;49838;51.798;10.954;2023-07-13T01:57:35;23.80;27.60
64549;DHT22;49838;51.798;10.954;2023-07-13T02:00:04;23.80;27.50
64549;DHT22;49838;51.798;10.954;2023-07-13T02:02:32;23.80;27.40
64549;DHT22;49838;51.798;10.954;2023-07-13T02:04:59;23.80;27.60
64549;DHT22;49838;51.798;10.954;2023-07-13T02:07:27;23.80;27.70
64549;DHT22;49838;51.798;10.954;2023-07-13T02:09:54;23.70;27.90
64549;DHT22;49838;51.798;10.954;2023-07-13T02:12:21;23.60;27.90
64549;DHT22;49838;51.798;10.954;2023-07-13T02:14:50;23.50;27.80
64549;DHT22;49838;51.798;10.954;2023-07-13T02:17:20;23.50;27.80
64549;DHT22;49838;51.798;10.954;2023-07-13T02:19:47;23.40;27.70
64549;DHT22;49838;51.798;10.954;2023-07-13T02:22:14;23.40;27.80
64549;DHT22;49838;51.798;10.954;2023-07-13T02:24:41;23.40;27.80
64549;DHT22;49838;51.798;10.954;2023-07-13T02:27:09;23.40;27.80
64549;DHT22;49838;51.798;10.954;2023-07-13T02:29:36;23.40;27.80
64549;DHT22;49838;51.798;10.954;2023-07-13T02:32:05;23.40;27.80
64549;DHT22;49838;51.798;10.954;2023-07-13T02:34:33;23.30;27.80
64549;DHT22;49838;51.798;10.954;2023-07-13T02:37:00;23.30;27.80
64549;DHT22;49838;51.798;10.954;2023-07-13T02:39:28;23.30;27.90
64549;DHT22;49838;51.798;10.954;2023-07-13T02:41:55;23.20;27.80
64549;DHT22;49838;51.798;10.954;2023-07-13T02:44:22;23.20;27.80
64549;DHT22;49838;51.798;10.954;2023-07-13T02:46:50;23.20;27.80
64549;DHT22;49838;51.798;10.954;2023-07-13T02:49:18;23.10;27.80
64549;DHT22;49838;51.798;10.954;2023-07-13T02:51:45;23.10;27.90
64549;DHT22;49838;51.798;10.954;2023-07-13T02:54:13;23.10;27.90
64549;DHT22;49838;51.798;10.954;2023-07-13T02:56:40;23.00;28.00
64549;DHT22;49838;51.798;10.954;2023-07-13T02:59:09;22.90;27.90
64549;DHT22;49838;51.798;10.954;2023-07-13T03:01:36;22.90;28.00
64549;DHT22;49838;51.798;10.954;2023-07-13T03:04:04;22.90;28.00
64549;DHT22;49838;51.798;10.954;2023-07-13T03:06:33;22.80;27.90
64549;DHT22;49838;51.798;10.954;2023-07-13T03:09:01;22.80;28.00
64549;DHT22;49838;51.798;10.954;2023-07-13T03:11:29;22.80;28.00
64549;DHT22;49838;51.798;10.954;2023-07-13T03:13:57;22.80;28.00
64549;DHT22;49838;51.798;10.954;2023-07-13T03:16:24;22.80;27.90
64549;DHT22;49838;51.798;10.954;2023-07-13T03:18:52;22.80;27.90
64549;DHT22;49838;51.798;10.954;2023-07-13T03:21:19;22.80;28.00
64549;DHT22;49838;51.798;10.954;2023-07-13T03:23:47;22.80;28.00
64549;DHT22;49838;51.798;10.954;2023-07-13T03:26:16;22.80;28.00
64549;DHT22;49838;51.798;10.954;2023-07-13T03:28:45;22.80;28.00
64549;DHT22;49838;51.798;10.954;2023-07-13T03:31:14;22.70;27.90
64549;DHT22;49838;51.798;10.954;2023-07-13T03:33:43;22.80;27.90
64549;DHT22;49838;51.798;10.954;2023-07-13T03:36:12;22.80;27.90
64549;DHT22;49838;51.798;10.954;2023-07-13T03:38:42;22.80;27.80
64549;DHT22;49838;51.798;10.954;2023-07-13T03:41:10;22.80;27.80
64549;DHT22;49838;51.798;10.954;2023-07-13T03:43:37;22.80;27.80
64549;DHT22;49838;51.798;10.954;2023-07-13T03:46:05;22.80;27.80
64549;DHT22;49838;51.798;10.954;2023-07-13T03:48:32;22.80;27.80
64549;DHT22;49838;51.798;10.954;2023-07-13T03:50:59;22.80;27.80
64549;DHT22;49838;51.798;10.954;2023-07-13T03:53:27;22.90;27.80
64549;DHT22;49838;51.798;10.954;2023-07-13T03:55:54;22.90;27.90
64549;DHT22;49838;51.798;10.954;2023-07-13T03:58:27;23.00;27.90
64549;DHT22;49838;51.798;10.954;2023-07-13T04:00:58;23.00;27.80
64549;DHT22;49838;51.798;10.954;2023-07-13T04:03:26;23.10;28.00
64549;DHT22;49838;51.798;10.954;2023-07-13T04:05:54;23.10;27.90
64549;DHT22;49838;51.798;10.954;2023-07-13T04:08:26;23.30;28.00
64549;DHT22;49838;51.798;10.954;2023-07-13T04:10:54;23.80;28.00
64549;DHT22;49838;51.798;10.954;2023-07-13T04:13:22;24.30;27.80
64549;DHT22;49838;51.798;10.954;2023-07-13T04:15:51;24.90;27.80
64549;DHT22;49838;51.798;10.954;2023-07-13T04:18:19;25.50;27.60
64549;DHT22;49838;51.798;10.954;2023-07-13T04:20:47;26.00;27.40
64549;DHT22;49838;51.798;10.954;2023-07-13T04:23:15;26.50;27.40
64549;DHT22;49838;51.798;10.954;2023-07-13T04:25:43;27.00;27.40
64549;DHT22;49838;51.798;10.954;2023-07-13T04:28:10;27.50;27.50
64549;DHT22;49838;51.798;10.954;2023-07-13T04:30:38;27.80;27.60
64549;DHT22;49838;51.798;10.954;2023-07-13T04:33:07;27.90;27.60
64549;DHT22;49838;51.798;10.954;2023-07-13T04:35:35;27.60;27.70
64549;DHT22;49838;51.798;10.954;2023-07-13T04:38:03;27.30;28.00
64549;DHT22;49838;51.798;10.954;2023-07-13T04:40:30;27.00;28.20
64549;DHT22;49838;51.798;10.954;2023-07-13T04:42:57;26.80;28.40
64549;DHT22;49838;51.798;10.954;2023-07-13T04:45:25;26.60;28.60
64549;DHT22;49838;51.798;10.954;2023-07-13T04:47:52;26.50;28.70
64549;DHT22;49838;51.798;10.954;2023-07-13T04:50:21;26.30;28.80
64549;DHT22;49838;51.798;10.954;2023-07-13T04:52:49;26.20;28.90
64549;DHT22;49838;51.798;10.954;2023-07-13T04:55:17;26.10;28.90
64549;DHT22;49838;51.798;10.954;2023-07-13T04:57:45;26.10;29.00
64549;DHT22;49838;51.798;10.954;2023-07-13T05:00:13;26.30;28.90
64549;DHT22;49838;51.798;10.954;2023-07-13T05:02:43;26.60;28.90
64549;DHT22;49838;51.798;10.954;2023-07-13T05:05:14;27.00;28.80
64549;DHT22;49838;51.798;10.954;2023-07-13T05:07:43;27.30;28.90
64549;DHT22;49838;51.798;10.954;2023-07-13T05:10:10;27.60;28.80
64549;DHT22;49838;51.798;10.954;2023-07-13T05:12:38;27.50;28.70
64549;DHT22;49838;51.798;10.954;2023-07-13T05:15:06;27.30;28.70
64549;DHT22;49838;51.798;10.954;2023-07-13T05:17:34;27.20;28.80
64549;DHT22;49838;51.798;10.954;2023-07-13T05:20:01;27.10;28.90
64549;DHT22;49838;51.798;10.954;2023-07-13T05:22:28;27.00;28.90
64549;DHT22;49838;51.798;10.954;2023-07-13T05:24:57;26.90;28.90
64549;DHT22;49838;51.798;10.954;2023-07-13T05:27:24;26.80;29.00
64549;DHT22;49838;51.798;10.954;2023-07-13T05:29:52;26.80;29.00
64549;DHT22;49838;51.798;10.954;2023-07-13T05:32:19;26.90;29.00
64549;DHT22;49838;51.798;10.954;2023-07-13T05:34:46;27.30;28.90
64549;DHT22;49838;51.798;10.954;2023-07-13T05:37:14;28.10;28.70
64549;DHT22;49838;51.798;10.954;2023-07-13T05:39:41;28.80;28.40
64549;DHT22;49838;51.798;10.954;2023-07-13T05:42:09;29.50;28.30
64549;DHT22;49838;51.798;10.954;2023-07-13T05:44:37;29.90;28.20
64549;DHT22;49838;51.798;10.954;2023-07-13T05:47:04;30.20;28.30
64549;DHT22;49838;51.798;10.954;2023-07-13T05:49:32;30.90;28.20
64549;DHT22;49838;51.798;10.954;2023-07-13T05:51:59;31.50;28.10
64549;DHT22;49838;51.798;10.954;2023-07-13T05:54:27;32.10;28.00
64549;DHT22;49838;51.798;10.954;2023-07-13T05:56:54;32.70;28.00
64549;DHT22;49838;51.798;10.954;2023-07-13T05:59:23;33.20;27.90
64549;DHT22;49838;51.798;10.954;2023-07-13T06:01:51;33.70;27.80
64549;DHT22;49838;51.798;10.954;2023-07-13T06:04:19;34.10;27.70
64549;DHT22;49838;51.798;10.954;2023-07-13T06:06:46;34.50;27.60
64549;DHT22;49838;51.798;10.954;2023-07-13T06:09:14;34.80;27.50
64549;DHT22;49838;51.798;10.954;2023-07-13T06:11:41;35.20;27.40
64549;DHT22;49838;51.798;10.954;2023-07-13T06:14:09;35.50;27.30
64549;DHT22;49838;51.798;10.954;2023-07-13T06:16:39;35.70;27.10
64549;DHT22;49838;51.798;10.954;2023-07-13T06:19:07;36.00;27.10
64549;DHT22;49838;51.798;10.954;2023-07-13T06:21:35;36.20;26.90
64549;DHT22;49838;51.798;10.954;2023-07-13T06:24:02;36.50;26.90
64549;DHT22;49838;51.798;10.954;2023-07-13T06:26:30;36.70;26.80
64549;DHT22;49838;51.798;10.954;2023-07-13T06:28:58;36.90;26.70
64549;DHT22;49838;51.798;10.954;2023-07-13T06:31:26;37.10;26.60
64549;DHT22;49838;51.798;10.954;2023-07-13T06:33:54;37.30;26.60
64549;DHT22;49838;51.798;10.954;2023-07-13T06:36:22;37.50;26.60
64549;DHT22;49838;51.798;10.954;2023-07-13T06:38:49;37.60;26.30
64549;DHT22;49838;51.798;10.954;2023-07-13T06:41:16;37.70;26.20
64549;DHT22;49838;51.798;10.954;2023-07-13T06:43:44;37.50;26.20
64549;DHT22;49838;51.798;10.954;2023-07-13T06:46:12;37.50;26.30
64549;DHT22;49838;51.798;10.954;2023-07-13T06:48:39;37.60;26.30
64549;DHT22;49838;51.798;10.954;2023-07-13T06:51:08;37.80;26.40
64549;DHT22;49838;51.798;10.954;2023-07-13T06:53:36;38.20;26.50
64549;DHT22;49838;51.798;10.954;2023-07-13T06:56:03;38.40;26.10
64549;DHT22;49838;51.798;10.954;2023-07-13T06:58:31;38.50;26.10
64549;DHT22;49838;51.798;10.954;2023-07-13T07:01:00;38.70;26.10
64549;DHT22;49838;51.798;10.954;2023-07-13T07:03:28;38.70;25.90
64549;DHT22;49838;51.798;10.954;2023-07-13T07:05:59;38.80;25.80
64549;DHT22;49838;51.798;10.954;2023-07-13T07:08:29;38.70;25.70
64549;DHT22;49838;51.798;10.954;2023-07-13T07:10:57;38.70;25.80
64549;DHT22;49838;51.798;10.954;2023-07-13T07:13:24;38.70;25.50
64549;DHT22;49838;51.798;10.954;2023-07-13T07:15:54;38.70;25.60
64549;DHT22;49838;51.798;10.954;2023-07-13T07:18:21;38.80;25.70
64549;DHT22;49838;51.798;10.954;2023-07-13T07:20:49;38.80;25.40
64549;DHT22;49838;51.798;10.954;2023-07-13T07:23:16;38.90;25.10
64549;DHT22;49838;51.798;10.954;2023-07-13T07:25:46;38.70;24.90
64549;DHT22;49838;51.798;10.954;2023-07-13T07:28:14;38.60;24.80
64549;DHT22;49838;51.798;10.954;2023-07-13T07:30:44;38.60;25.00
64549;DHT22;49838;51.798;10.954;2023-07-13T07:33:11;38.60;24.80
64549;DHT22;49838;51.798;10.954;2023-07-13T07:35:39;38.60;24.80
64549;DHT22;49838;51.798;10.954;2023-07-13T07:38:06;38.70;24.40
64549;DHT22;49838;51.798;10.954;2023-07-13T07:40:36;38.70;24.50
64549;DHT22;49838;51.798;10.954;2023-07-13T07:43:05;38.80;24.50
64549;DHT22;49838;51.798;10.954;2023-07-13T07:45:32;38.90;24.60
64549;DHT22;49838;51.798;10.954;2023-07-13T07:48:01;39.00;24.30
64549;DHT22;49838;51.798;10.954;2023-07-13T07:50:28;38.90;24.20
64549;DHT22;49838;51.798;10.954;2023-07-13T07:52:56;39.00;24.20
64549;DHT22;49838;51.798;10.954;2023-07-13T07:55:23;39.10;24.50
64549;DHT22;49838;51.798;10.954;2023-07-13T07:57:52;39.10;24.20
64549;DHT22;49838;51.798;10.954;2023-07-13T08:00:21;39.20;23.70
64549;DHT22;49838;51.798;10.954;2023-07-13T08:02:48;39.30;24.10
64549;DHT22;49838;51.798;10.954;2023-07-13T08:05:16;39.40;24.10
64549;DHT22;49838;51.798;10.954;2023-07-13T08:07:44;39.60;24.20
64549;DHT22;49838;51.798;10.954;2023-07-13T08:10:11;39.60;24.20
64549;DHT22;49838;51.798;10.954;2023-07-13T08:12:38;39.80;24.30
64549;DHT22;49838;51.798;10.954;2023-07-13T08:15:09;40.10;24.20
64549;DHT22;49838;51.798;10.954;2023-07-13T08:17:40;40.30;24.10
64549;DHT22;49838;51.798;10.954;2023-07-13T08:20:08;40.40;24.00
64549;DHT22;49838;51.798;10.954;2023-07-13T08:22:36;40.50;23.80
64549;DHT22;49838;51.798;10.954;2023-07-13T08:25:03;40.60;23.90
64549;DHT22;49838;51.798;10.954;2023-07-13T08:27:32;40.80;24.00
64549;DHT22;49838;51.798;10.954;2023-07-13T08:30:00;40.80;24.10
64549;DHT22;49838;51.798;10.954;2023-07-13T08:32:27;41.10;24.10
64549;DHT22;49838;51.798;10.954;2023-07-13T08:34:56;41.30;23.90
64549;DHT22;49838;51.798;10.954;2023-07-13T08:37:23;41.50;23.60
64549;DHT22;49838;51.798;10.954;2023-07-13T08:39:50;41.40;23.50
64549;DHT22;49838;51.798;10.954;2023-07-13T08:42:22;41.40;23.30
64549;DHT22;49838;51.798;10.954;2023-07-13T08:45:01;41.60;23.60
64549;DHT22;49838;51.798;10.954;2023-07-13T08:47:35;41.70;23.40
64549;DHT22;49838;51.798;10.954;2023-07-13T08:50:11;41.70;23.70
64549;DHT22;49838;51.798;10.954;2023-07-13T08:52:42;41.70;23.00
64549;DHT22;49838;51.798;10.954;2023-07-13T08:55:12;41.90;23.00
64549;DHT22;49838;51.798;10.954;2023-07-13T08:57:42;41.90;22.90
64549;DHT22;49838;51.798;10.954;2023-07-13T09:00:13;42.10;22.90
64549;DHT22;49838;51.798;10.954;2023-07-13T09:02:44;42.20;22.80
64549;DHT22;49838;51.798;10.954;2023-07-13T09:05:17;42.40;22.70
64549;DHT22;49838;51.798;10.954;2023-07-13T09:08:07;42.40;22.60
64549;DHT22;49838;51.798;10.954;2023-07-13T09:10:48;42.50;22.80
64549;DHT22;49838;51.798;10.954;2023-07-13T09:13:23;42.90;23.00
64549;DHT22;49838;51.798;10.954;2023-07-13T09:15:59;43.20;22.90
64549;DHT22;49838;51.798;10.954;2023-07-13T09:18:27;43.30;22.70
64549;DHT22;49838;51.798;10.954;2023-07-13T09:21:02;43.50;22.30
64549;DHT22;49838;51.798;10.954;2023-07-13T09:23:32;43.40;22.30
64549;DHT22;49838;51.798;10.954;2023-07-13T09:26:00;43.30;22.40
64549;DHT22;49838;51.798;10.954;2023-07-13T09:28:33;43.20;22.50
64549;DHT22;49838;51.798;10.954;2023-07-13T09:31:05;42.70;21.90
64549;DHT22;49838;51.798;10.954;2023-07-13T09:33:36;42.00;21.90
64549;DHT22;49838;51.798;10.954;2023-07-13T09:36:08;41.60;21.90
64549;DHT22;49838;51.798;10.954;2023-07-13T09:38:45;41.20;22.00
64549;DHT22;49838;51.798;10.954;2023-07-13T09:41:18;40.90;22.00
64549;DHT22;49838;51.798;10.954;2023-07-13T09:44:08;40.90;22.10
64549;DHT22;49838;51.798;10.954;2023-07-13T09:46:37;41.00;22.10
64549;DHT22;49838;51.798;10.954;2023-07-13T09:49:07;41.10;22.00
64549;DHT22;49838;51.798;10.954;2023-07-13T09:51:39;41.10;22.00
64549;DHT22;49838;51.798;10.954;2023-07-13T09:54:17;41.10;22.00
64549;DHT22;49838;51.798;10.954;2023-07-13T09:56:46;41.40;22.10
64549;DHT22;49838;51.798;10.954;2023-07-13T09:59:20;41.40;22.00
64549;DHT22;49838;51.798;10.954;2023-07-13T10:01:49;41.30;21.90
64549;DHT22;49838;51.798;10.954;2023-07-13T10:04:26;41.20;21.90
64549;DHT22;49838;51.798;10.954;2023-07-13T10:07:05;41.10;21.90
64549;DHT22;49838;51.798;10.954;2023-07-13T10:09:34;41.10;21.90
64549;DHT22;49838;51.798;10.954;2023-07-13T10:12:01;41.10;22.00
64549;DHT22;49838;51.798;10.954;2023-07-13T10:14:30;41.20;22.00
64549;DHT22;49838;51.798;10.954;2023-07-13T10:16:58;41.40;22.10
64549;DHT22;49838;51.798;10.954;2023-07-13T10:19:29;41.50;22.10
64549;DHT22;49838;51.798;10.954;2023-07-13T10:22:00;41.50;22.00
64549;DHT22;49838;51.798;10.954;2023-07-13T10:24:32;41.50;22.10
64549;DHT22;49838;51.798;10.954;2023-07-13T10:27:05;41.50;22.10
64549;DHT22;49838;51.798;10.954;2023-07-13T10:29:41;41.40;22.00
64549;DHT22;49838;51.798;10.954;2023-07-13T10:32:14;40.90;21.80
64549;DHT22;49838;51.798;10.954;2023-07-13T10:34:42;40.40;21.80
64549;DHT22;49838;51.798;10.954;2023-07-13T10:37:15;40.40;21.90
64549;DHT22;49838;51.798;10.954;2023-07-13T10:39:48;40.70;22.10
64549;DHT22;49838;51.798;10.954;2023-07-13T10:42:23;41.10;22.10
64549;DHT22;49838;51.798;10.954;2023-07-13T10:44:54;41.10;22.00
64549;DHT22;49838;51.798;10.954;2023-07-13T10:47:21;41.10;22.00
64549;DHT22;49838;51.798;10.954;2023-07-13T10:49:50;41.00;21.90
64549;DHT22;49838;51.798;10.954;2023-07-13T10:52:40;40.80;21.80
64549;DHT22;49838;51.798;10.954;2023-07-13T10:58:11;40.00;21.50
64549;DHT22;49838;51.798;10.954;2023-07-13T11:00:45;39.50;21.40
64549;DHT22;49838;51.798;10.954;2023-07-13T11:03:17;39.20;21.50
64549;DHT22;49838;51.798;10.954;2023-07-13T11:05:50;39.20;21.70
64549;DHT22;49838;51.798;10.954;2023-07-13T11:08:32;39.20;21.70
64549;DHT22;49838;51.798;10.954;2023-07-13T11:11:05;39.10;21.60
64549;DHT22;49838;51.798;10.954;2023-07-13T11:14:04;38.80;21.70
64549;DHT22;49838;51.798;10.954;2023-07-13T11:16:52;38.50;21.60
64549;DHT22;49838;51.798;10.954;2023-07-13T11:22:13;37.80;21.70
64549;DHT22;49838;51.798;10.954;2023-07-13T11:24:49;37.70;21.70
64549;DHT22;49838;51.798;10.954;2023-07-13T11:27:34;37.70;21.80
64549;DHT22;49838;51.798;10.954;2023-07-13T11:30:07;37.40;21.70
64549;DHT22;49838;51.798;10.954;2023-07-13T11:35:41;36.70;21.80
64549;DHT22;49838;51.798;10.954;2023-07-13T11:38:15;36.50;21.80
64549;DHT22;49838;51.798;10.954;2023-07-13T11:40:44;36.40;21.90
64549;DHT22;49838;51.798;10.954;2023-07-13T11:43:15;36.20;22.00
64549;DHT22;49838;51.798;10.954;2023-07-13T11:45:43;36.20;22.00
64549;DHT22;49838;51.798;10.954;2023-07-13T11:48:18;36.20;21.90
64549;DHT22;49838;51.798;10.954;2023-07-13T11:50:51;36.20;22.00
64549;DHT22;49838;51.798;10.954;2023-07-13T11:53:22;36.20;22.00
64549;DHT22;49838;51.798;10.954;2023-07-13T11:55:53;36.00;22.00
64549;DHT22;49838;51.798;10.954;2023-07-13T11:58:24;36.00;22.00
64549;DHT22;49838;51.798;10.954;2023-07-13T12:00:54;35.80;22.10
64549;DHT22;49838;51.798;10.954;2023-07-13T12:03:24;35.60;22.10
64549;DHT22;49838;51.798;10.954;2023-07-13T12:05:56;35.40;22.20
64549;DHT22;49838;51.798;10.954;2023-07-13T12:08:26;35.20;22.20
64549;DHT22;49838;51.798;10.954;2023-07-13T12:10:58;35.20;22.30
64549;DHT22;49838;51.798;10.954;2023-07-13T12:13:36;35.20;22.30
64549;DHT22;49838;51.798;10.954;2023-07-13T12:16:12;35.30;22.40
64549;DHT22;49838;51.798;10.954;2023-07-13T12:18:43;35.30;22.40
64549;DHT22;49838;51.798;10.954;2023-07-13T12:21:16;35.20;22.40
64549;DHT22;49838;51.798;10.954;2023-07-13T12:23:47;35.20;22.40
64549;DHT22;49838;51.798;10.954;2023-07-13T12:26:16;35.20;22.50
64549;DHT22;49838;51.798;10.954;2023-07-13T12:28:47;35.20;22.50
64549;DHT22;49838;51.798;10.954;2023-07-13T12:34:09;35.10;22.50
64549;DHT22;49838;51.798;10.954;2023-07-13T12:36:40;34.90;22.50
64549;DHT22;49838;51.798;10.954;2023-07-13T12:39:15;34.80;22.50
64549;DHT22;49838;51.798;10.954;2023-07-13T12:41:44;34.80;22.50
64549;DHT22;49838;51.798;10.954;2023-07-13T12:44:15;34.70;22.50
64549;DHT22;49838;51.798;10.954;2023-07-13T12:46:52;34.60;22.50
64549;DHT22;49838;51.798;10.954;2023-07-13T12:49:22;34.60;22.50
64549;DHT22;49838;51.798;10.954;2023-07-13T12:51:55;34.40;22.50
64549;DHT22;49838;51.798;10.954;2023-07-13T12:54:25;34.50;22.60
64549;DHT22;49838;51.798;10.954;2023-07-13T12:56:54;34.60;22.50
64549;DHT22;49838;51.798;10.954;2023-07-13T12:59:26;34.60;22.40
64549;DHT22;49838;51.798;10.954;2023-07-13T13:02:02;34.60;22.40
64549;DHT22;49838;51.798;10.954;2023-07-13T13:04:44;34.70;22.40
64549;DHT22;49838;51.798;10.954;2023-07-13T13:07:12;34.80;22.40
64549;DHT22;49838;51.798;10.954;2023-07-13T13:09:39;34.80;22.50
64549;DHT22;49838;51.798;10.954;2023-07-13T13:12:07;34.80;22.50
64549;DHT22;49838;51.798;10.954;2023-07-13T13:14:37;34.70;22.40
64549;DHT22;49838;51.798;10.954;2023-07-13T13:17:07;34.70;22.50
64549;DHT22;49838;51.798;10.954;2023-07-13T13:19:46;34.70;22.90
64549;DHT22;49838;51.798;10.954;2023-07-13T13:22:13;34.60;22.40
64549;DHT22;49838;51.798;10.954;2023-07-13T13:24:41;34.60;22.40
64549;DHT22;49838;51.798;10.954;2023-07-13T13:27:12;34.50;22.50
64549;DHT22;49838;51.798;10.954;2023-07-13T13:29:44;34.30;22.50
64549;DHT22;49838;51.798;10.954;2023-07-13T13:32:12;34.20;22.60
64549;DHT22;49838;51.798;10.954;2023-07-13T13:34:41;34.20;22.60
64549;DHT22;49838;51.798;10.954;2023-07-13T13:37:16;34.20;22.60
64549;DHT22;49838;51.798;10.954;2023-07-13T13:39:46;34.20;22.40
64549;DHT22;49838;51.798;10.954;2023-07-13T13:42:13;34.20;22.60
64549;DHT22;49838;51.798;10.954;2023-07-13T13:44:41;34.40;22.60
64549;DHT22;49838;51.798;10.954;2023-07-13T13:47:22;34.50;22.50
64549;DHT22;49838;51.798;10.954;2023-07-13T13:49:56;34.40;22.50
64549;DHT22;49838;51.798;10.954;2023-07-13T13:52:24;34.50;22.50
64549;DHT22;49838;51.798;10.954;2023-07-13T13:54:52;34.50;22.50
64549;DHT22;49838;51.798;10.954;2023-07-13T13:57:22;34.50;22.50
64549;DHT22;49838;51.798;10.954;2023-07-13T13:59:51;34.40;22.40
64549;DHT22;49838;51.798;10.954;2023-07-13T14:02:23;34.30;22.50
64549;DHT22;49838;51.798;10.954;2023-07-13T14:04:54;34.40;22.50
64549;DHT22;49838;51.798;10.954;2023-07-13T14:07:24;34.20;22.50
64549;DHT22;49838;51.798;10.954;2023-07-13T14:09:51;34.00;22.50
64549;DHT22;49838;51.798;10.954;2023-07-13T14:12:19;33.80;22.60
64549;DHT22;49838;51.798;10.954;2023-07-13T14:14:47;33.80;22.70
64549;DHT22;49838;51.798;10.954;2023-07-13T14:17:19;33.90;22.70
64549;DHT22;49838;51.798;10.954;2023-07-13T14:19:50;34.00;22.70
64549;DHT22;49838;51.798;10.954;2023-07-13T14:22:23;34.10;22.60
64549;DHT22;49838;51.798;10.954;2023-07-13T14:24:51;34.20;22.60
64549;DHT22;49838;51.798;10.954;2023-07-13T14:27:20;34.20;22.60
64549;DHT22;49838;51.798;10.954;2023-07-13T14:29:47;34.30;22.60
64549;DHT22;49838;51.798;10.954;2023-07-13T14:32:15;34.30;22.60
64549;DHT22;49838;51.798;10.954;2023-07-13T14:34:43;34.30;22.60
64549;DHT22;49838;51.798;10.954;2023-07-13T14:37:13;34.40;22.70
64549;DHT22;49838;51.798;10.954;2023-07-13T14:39:43;34.40;22.60
64549;DHT22;49838;51.798;10.954;2023-07-13T14:42:11;34.40;22.70
64549;DHT22;49838;51.798;10.954;2023-07-13T14:44:39;34.30;22.70
64549;DHT22;49838;51.798;10.954;2023-07-13T14:47:07;34.20;22.80
64549;DHT22;49838;51.798;10.954;2023-07-13T14:49:36;34.20;22.80
64549;DHT22;49838;51.798;10.954;2023-07-13T14:52:08;34.20;22.90
64549;DHT22;49838;51.798;10.954;2023-07-13T14:54:40;34.20;22.90
64549;DHT22;49838;51.798;10.954;2023-07-13T14:57:10;34.20;22.90
64549;DHT22;49838;51.798;10.954;2023-07-13T14:59:38;34.10;22.90
64549;DHT22;49838;51.798;10.954;2023-07-13T15:02:13;34.00;22.90
64549;DHT22;49838;51.798;10.954;2023-07-13T15:04:42;33.90;22.90
64549;DHT22;49838;51.798;10.954;2023-07-13T15:07:11;33.70;22.90
64549;DHT22;49838;51.798;10.954;2023-07-13T15:09:41;33.60;23.00
64549;DHT22;49838;51.798;10.954;2023-07-13T15:12:09;33.70;23.00
64549;DHT22;49838;51.798;10.954;2023-07-13T15:14:36;33.80;23.00
64549;DHT22;49838;51.798;10.954;2023-07-13T15:17:04;33.80;23.00
64549;DHT22;49838;51.798;10.954;2023-07-13T15:19:32;33.90;23.00
64549;DHT22;49838;51.798;10.954;2023-07-13T15:22:01;33.90;23.00
64549;DHT22;49838;51.798;10.954;2023-07-13T15:24:29;33.80;23.00
64549;DHT22;49838;51.798;10.954;2023-07-13T15:26:58;33.80;23.20
64549;DHT22;49838;51.798;10.954;2023-07-13T15:29:25;33.60;23.10
64549;DHT22;49838;51.798;10.954;2023-07-13T15:31:52;33.60;23.10
64549;DHT22;49838;51.798;10.954;2023-07-13T15:34:20;33.50;23.20
64549;DHT22;49838;51.798;10.954;2023-07-13T15:36:52;33.50;23.20
64549;DHT22;49838;51.798;10.954;2023-07-13T15:39:19;33.50;23.20
64549;DHT22;49838;51.798;10.954;2023-07-13T15:41:47;33.50;23.20
64549;DHT22;49838;51.798;10.954;2023-07-13T15:44:26;33.50;23.30